sensor_id;sensor_type;location;lat;lon;timestamp;P1;durP1;ratioP1;P2;durP2;ratioP2
823;SDS011;373;49.342;8.146;2023-06-22T00:01:20;4.00;;;3.60;;
823;SDS011;373;49.342;8.146;2023-06-22T00:03:48;4.85;;;4.45;;
823;SDS011;373;49.342;8.146;2023-06-22T00:06:16;5.47;;;4.93;;
823;SDS011;373;49.342;8.146;2023-06-22T00:08:43;4.88;;;4.45;;
823;SDS011;373;49.342;8.146;2023-06-22T00:11:10;5.57;;;5.07;;
823;SDS011;373;49.342;8.146;2023-06-22T00:13:41;5.35;;;4.88;;
823;SDS011;373;49.342;8.146;2023-06-22T00:16:08;5.50;;;5.00;;
823;SDS011;373;49.342;8.146;2023-06-22T00:18:35;4.82;;;4.43;;
823;SDS011;373;49.342;8.146;2023-06-22T00:21:02;5.05;;;4.65;;
823;SDS011;373;49.342;8.146;2023-06-22T00:23:30;4.90;;;4.40;;
823;SDS011;373;49.342;8.146;2023-06-22T00:26:00;4.53;;;4.13;;
823;SDS011;373;49.342;8.146;2023-06-22T00:28:29;5.07;;;4.50;;
823;SDS011;373;49.342;8.146;2023-06-22T00:30:58;5.25;;;4.75;;
823;SDS011;373;49.342;8.146;2023-06-22T00:33:25;5.07;;;4.50;;
823;SDS011;373;49.342;8.146;2023-06-22T00:35:53;8.23;;;5.25;;
823;SDS011;373;49.342;8.146;2023-06-22T00:38:20;5.90;;;5.10;;
823;SDS011;373;49.342;8.146;2023-06-22T00:40:48;7.35;;;5.13;;
823;SDS011;373;49.342;8.146;2023-06-22T00:43:15;5.40;;;4.90;;
823;SDS011;373;49.342;8.146;2023-06-22T00:45:42;5.35;;;4.85;;
823;SDS011;373;49.342;8.146;2023-06-22T00:48:10;5.05;;;4.55;;
823;SDS011;373;49.342;8.146;2023-06-22T00:50:39;5.18;;;4.68;;
823;SDS011;373;49.342;8.146;2023-06-22T00:53:08;5.32;;;4.82;;
823;SDS011;373;49.342;8.146;2023-06-22T00:55:38;6.15;;;5.55;;
823;SDS011;373;49.342;8.146;2023-06-22T00:58:10;5.15;;;4.65;;
823;SDS011;373;49.342;8.146;2023-06-22T01:00:38;5.88;;;5.07;;
823;SDS011;373;49.342;8.146;2023-06-22T01:03:06;5.60;;;5.13;;
823;SDS011;373;49.342;8.146;2023-06-22T01:05:36;5.57;;;5.07;;
823;SDS011;373;49.342;8.146;2023-06-22T01:08:06;6.30;;;5.68;;
823;SDS011;373;49.342;8.146;2023-06-22T01:10:41;5.72;;;5.22;;
823;SDS011;373;49.342;8.146;2023-06-22T01:13:16;4.95;;;4.55;;
823;SDS011;373;49.342;8.146;2023-06-22T01:15:51;6.20;;;5.60;;
823;SDS011;373;49.342;8.146;2023-06-22T01:18:23;6.13;;;5.50;;
823;SDS011;373;49.342;8.146;2023-06-22T01:20:55;5.13;;;4.72;;
823;SDS011;373;49.342;8.146;2023-06-22T01:23:26;6.60;;;5.80;;
823;SDS011;373;49.342;8.146;2023-06-22T01:26:01;6.05;;;5.55;;
823;SDS011;373;49.342;8.146;2023-06-22T01:28:39;5.65;;;5.15;;
823;SDS011;373;49.342;8.146;2023-06-22T01:31:13;6.75;;;6.18;;
823;SDS011;373;49.342;8.146;2023-06-22T01:33:43;6.68;;;6.13;;
823;SDS011;373;49.342;8.146;2023-06-22T01:36:12;6.50;;;5.93;;
823;SDS011;373;49.342;8.146;2023-06-22T01:38:40;6.70;;;6.15;;
823;SDS011;373;49.342;8.146;2023-06-22T01:41:12;5.90;;;5.40;;
823;SDS011;373;49.342;8.146;2023-06-22T01:43:40;5.95;;;5.40;;
823;SDS011;373;49.342;8.146;2023-06-22T01:46:09;6.72;;;5.60;;
823;SDS011;373;49.342;8.146;2023-06-22T01:48:38;6.72;;;6.22;;
823;SDS011;373;49.342;8.146;2023-06-22T01:51:05;6.13;;;5.63;;
823;SDS011;373;49.342;8.146;2023-06-22T01:53:32;8.70;;;6.03;;
823;SDS011;373;49.342;8.146;2023-06-22T01:55:59;6.78;;;6.05;;
823;SDS011;373;49.342;8.146;2023-06-22T01:58:29;6.32;;;5.45;;
823;SDS011;373;49.342;8.146;2023-06-22T02:01:00;6.35;;;5.85;;
823;SDS011;373;49.342;8.146;2023-06-22T02:03:34;6.65;;;5.72;;
823;SDS011;373;49.342;8.146;2023-06-22T02:06:04;6.18;;;5.68;;
823;SDS011;373;49.342;8.146;2023-06-22T02:08:36;7.10;;;6.50;;
823;SDS011;373;49.342;8.146;2023-06-22T02:11:07;6.28;;;5.68;;
823;SDS011;373;49.342;8.146;2023-06-22T02:13:36;6.47;;;5.95;;
823;SDS011;373;49.342;8.146;2023-06-22T02:16:09;6.22;;;5.75;;
823;SDS011;373;49.342;8.146;2023-06-22T02:18:39;7.30;;;6.70;;
823;SDS011;373;49.342;8.146;2023-06-22T02:21:12;6.82;;;6.30;;
823;SDS011;373;49.342;8.146;2023-06-22T02:23:41;6.28;;;5.68;;
823;SDS011;373;49.342;8.146;2023-06-22T02:26:08;7.13;;;6.50;;
823;SDS011;373;49.342;8.146;2023-06-22T02:28:38;6.28;;;5.78;;
823;SDS011;373;49.342;8.146;2023-06-22T02:31:05;6.05;;;5.55;;
823;SDS011;373;49.342;8.146;2023-06-22T02:33:33;6.90;;;6.30;;
823;SDS011;373;49.342;8.146;2023-06-22T02:36:00;7.18;;;6.57;;
823;SDS011;373;49.342;8.146;2023-06-22T02:38:30;7.07;;;6.38;;
823;SDS011;373;49.342;8.146;2023-06-22T02:41:02;5.90;;;5.40;;
823;SDS011;373;49.342;8.146;2023-06-22T02:43:33;6.28;;;5.68;;
823;SDS011;373;49.342;8.146;2023-06-22T02:46:00;6.38;;;5.78;;
823;SDS011;373;49.342;8.146;2023-06-22T02:48:27;5.85;;;5.25;;
823;SDS011;373;49.342;8.146;2023-06-22T02:50:59;6.20;;;5.70;;
823;SDS011;373;49.342;8.146;2023-06-22T02:53:28;7.60;;;6.80;;
823;SDS011;373;49.342;8.146;2023-06-22T02:55:58;6.25;;;5.75;;
823;SDS011;373;49.342;8.146;2023-06-22T02:58:28;6.03;;;5.38;;
823;SDS011;373;49.342;8.146;2023-06-22T03:00:55;6.00;;;5.60;;
823;SDS011;373;49.342;8.146;2023-06-22T03:03:22;6.13;;;5.53;;
823;SDS011;373;49.342;8.146;2023-06-22T03:05:51;5.97;;;5.47;;
823;SDS011;373;49.342;8.146;2023-06-22T03:08:25;6.95;;;6.35;;
823;SDS011;373;49.342;8.146;2023-06-22T03:10:53;7.35;;;6.38;;
823;SDS011;373;49.342;8.146;2023-06-22T03:13:20;6.40;;;5.90;;
823;SDS011;373;49.342;8.146;2023-06-22T03:15:47;8.23;;;5.90;;
823;SDS011;373;49.342;8.146;2023-06-22T03:18:14;6.15;;;5.65;;
823;SDS011;373;49.342;8.146;2023-06-22T03:20:41;6.25;;;5.75;;
823;SDS011;373;49.342;8.146;2023-06-22T03:23:09;6.38;;;5.88;;
823;SDS011;373;49.342;8.146;2023-06-22T03:25:39;6.65;;;6.05;;
823;SDS011;373;49.342;8.146;2023-06-22T03:28:07;6.88;;;6.38;;
823;SDS011;373;49.342;8.146;2023-06-22T03:30:34;6.50;;;5.90;;
823;SDS011;373;49.342;8.146;2023-06-22T03:33:01;7.05;;;6.35;;
823;SDS011;373;49.342;8.146;2023-06-22T03:35:29;6.32;;;5.80;;
823;SDS011;373;49.342;8.146;2023-06-22T03:37:56;6.47;;;5.97;;
823;SDS011;373;49.342;8.146;2023-06-22T03:40:23;7.28;;;6.65;;
823;SDS011;373;49.342;8.146;2023-06-22T03:42:51;6.82;;;6.25;;
823;SDS011;373;49.342;8.146;2023-06-22T03:45:18;6.53;;;6.03;;
823;SDS011;373;49.342;8.146;2023-06-22T03:47:47;6.93;;;6.32;;
823;SDS011;373;49.342;8.146;2023-06-22T03:50:17;6.25;;;5.72;;
823;SDS011;373;49.342;8.146;2023-06-22T03:52:45;7.28;;;6.57;;
823;SDS011;373;49.342;8.146;2023-06-22T03:55:12;7.63;;;6.65;;
823;SDS011;373;49.342;8.146;2023-06-22T03:57:39;7.15;;;6.55;;
823;SDS011;373;49.342;8.146;2023-06-22T04:00:09;7.45;;;6.72;;
823;SDS011;373;49.342;8.146;2023-06-22T04:02:40;7.43;;;5.97;;
823;SDS011;373;49.342;8.146;2023-06-22T04:05:08;6.68;;;6.18;;
823;SDS011;373;49.342;8.146;2023-06-22T04:07:36;6.55;;;5.97;;
823;SDS011;373;49.342;8.146;2023-06-22T04:10:03;6.35;;;5.75;;
823;SDS011;373;49.342;8.146;2023-06-22T04:12:33;6.65;;;5.95;;
823;SDS011;373;49.342;8.146;2023-06-22T04:15:00;6.95;;;6.10;;
823;SDS011;373;49.342;8.146;2023-06-22T04:17:29;7.13;;;6.53;;
823;SDS011;373;49.342;8.146;2023-06-22T04:19:56;6.85;;;6.30;;
823;SDS011;373;49.342;8.146;2023-06-22T04:22:23;6.15;;;5.65;;
823;SDS011;373;49.342;8.146;2023-06-22T04:24:50;7.95;;;6.50;;
823;SDS011;373;49.342;8.146;2023-06-22T04:27:20;7.57;;;6.88;;
823;SDS011;373;49.342;8.146;2023-06-22T04:29:53;8.60;;;7.90;;
823;SDS011;373;49.342;8.146;2023-06-22T04:32:20;7.90;;;7.20;;
823;SDS011;373;49.342;8.146;2023-06-22T04:34:49;9.02;;;8.32;;
823;SDS011;373;49.342;8.146;2023-06-22T04:37:17;9.00;;;8.30;;
823;SDS011;373;49.342;8.146;2023-06-22T04:39:49;7.47;;;6.88;;
823;SDS011;373;49.342;8.146;2023-06-22T04:42:16;8.50;;;7.70;;
823;SDS011;373;49.342;8.146;2023-06-22T04:44:43;11.95;;;10.85;;
823;SDS011;373;49.342;8.146;2023-06-22T04:48:03;9.15;;;8.38;;
823;SDS011;373;49.342;8.146;2023-06-22T04:50:41;8.05;;;7.45;;
823;SDS011;373;49.342;8.146;2023-06-22T04:53:25;9.90;;;9.10;;
823;SDS011;373;49.342;8.146;2023-06-22T04:56:07;9.38;;;7.75;;
823;SDS011;373;49.342;8.146;2023-06-22T04:58:35;9.13;;;8.43;;
823;SDS011;373;49.342;8.146;2023-06-22T05:01:04;8.50;;;7.80;;
823;SDS011;373;49.342;8.146;2023-06-22T05:03:36;8.40;;;7.80;;
823;SDS011;373;49.342;8.146;2023-06-22T05:06:11;9.05;;;8.32;;
823;SDS011;373;49.342;8.146;2023-06-22T05:08:39;9.02;;;8.23;;
823;SDS011;373;49.342;8.146;2023-06-22T05:11:14;8.52;;;7.82;;
823;SDS011;373;49.342;8.146;2023-06-22T05:13:41;8.73;;;8.00;;
823;SDS011;373;49.342;8.146;2023-06-22T05:16:09;7.82;;;7.13;;
823;SDS011;373;49.342;8.146;2023-06-22T05:18:39;9.82;;;8.93;;
823;SDS011;373;49.342;8.146;2023-06-22T05:21:07;8.23;;;7.55;;
823;SDS011;373;49.342;8.146;2023-06-22T05:23:36;9.80;;;8.90;;
823;SDS011;373;49.342;8.146;2023-06-22T05:26:03;9.20;;;8.35;;
823;SDS011;373;49.342;8.146;2023-06-22T05:28:30;9.60;;;8.70;;
823;SDS011;373;49.342;8.146;2023-06-22T05:31:09;8.82;;;8.13;;
823;SDS011;373;49.342;8.146;2023-06-22T05:33:36;9.98;;;9.07;;
823;SDS011;373;49.342;8.146;2023-06-22T05:36:04;11.40;;;8.93;;
823;SDS011;373;49.342;8.146;2023-06-22T05:38:31;9.77;;;8.88;;
823;SDS011;373;49.342;8.146;2023-06-22T05:41:03;10.10;;;9.18;;
823;SDS011;373;49.342;8.146;2023-06-22T05:43:30;11.73;;;10.60;;
823;SDS011;373;49.342;8.146;2023-06-22T05:45:57;10.32;;;9.40;;
823;SDS011;373;49.342;8.146;2023-06-22T05:48:24;10.02;;;9.20;;
823;SDS011;373;49.342;8.146;2023-06-22T05:50:52;9.38;;;8.40;;
823;SDS011;373;49.342;8.146;2023-06-22T05:53:19;9.82;;;9.02;;
823;SDS011;373;49.342;8.146;2023-06-22T05:55:49;10.07;;;9.13;;
823;SDS011;373;49.342;8.146;2023-06-22T05:58:17;9.98;;;8.98;;
823;SDS011;373;49.342;8.146;2023-06-22T06:00:44;10.02;;;9.23;;
823;SDS011;373;49.342;8.146;2023-06-22T06:03:12;8.52;;;7.82;;
823;SDS011;373;49.342;8.146;2023-06-22T06:05:42;9.35;;;8.55;;
823;SDS011;373;49.342;8.146;2023-06-22T06:08:10;9.30;;;8.45;;
823;SDS011;373;49.342;8.146;2023-06-22T06:10:38;8.18;;;7.47;;
823;SDS011;373;49.342;8.146;2023-06-22T06:13:05;8.93;;;8.20;;
823;SDS011;373;49.342;8.146;2023-06-22T06:15:34;7.85;;;7.15;;
823;SDS011;373;49.342;8.146;2023-06-22T06:18:01;7.78;;;7.18;;
823;SDS011;373;49.342;8.146;2023-06-22T06:20:30;8.60;;;7.90;;
823;SDS011;373;49.342;8.146;2023-06-22T06:22:58;6.75;;;6.25;;
823;SDS011;373;49.342;8.146;2023-06-22T06:25:25;7.00;;;6.50;;
823;SDS011;373;49.342;8.146;2023-06-22T06:27:52;7.18;;;6.57;;
823;SDS011;373;49.342;8.146;2023-06-22T06:30:20;7.00;;;6.30;;
823;SDS011;373;49.342;8.146;2023-06-22T06:32:49;5.80;;;5.30;;
823;SDS011;373;49.342;8.146;2023-06-22T06:35:21;8.07;;;7.38;;
823;SDS011;373;49.342;8.146;2023-06-22T06:37:48;7.60;;;6.90;;
823;SDS011;373;49.342;8.146;2023-06-22T06:40:17;8.00;;;7.28;;
823;SDS011;373;49.342;8.146;2023-06-22T06:42:45;7.50;;;6.90;;
823;SDS011;373;49.342;8.146;2023-06-22T06:45:15;7.68;;;7.03;;
823;SDS011;373;49.342;8.146;2023-06-22T06:47:43;7.63;;;6.90;;
823;SDS011;373;49.342;8.146;2023-06-22T06:50:11;8.05;;;7.40;;
823;SDS011;373;49.342;8.146;2023-06-22T06:52:39;7.57;;;6.90;;
823;SDS011;373;49.342;8.146;2023-06-22T06:55:07;8.18;;;7.57;;
823;SDS011;373;49.342;8.146;2023-06-22T06:57:37;7.70;;;7.00;;
823;SDS011;373;49.342;8.146;2023-06-22T07:00:05;8.15;;;7.45;;
823;SDS011;373;49.342;8.146;2023-06-22T07:02:34;8.57;;;7.78;;
823;SDS011;373;49.342;8.146;2023-06-22T07:05:02;9.02;;;8.23;;
823;SDS011;373;49.342;8.146;2023-06-22T07:07:31;8.93;;;8.23;;
823;SDS011;373;49.342;8.146;2023-06-22T07:09:58;9.23;;;8.43;;
823;SDS011;373;49.342;8.146;2023-06-22T07:12:25;8.88;;;8.07;;
823;SDS011;373;49.342;8.146;2023-06-22T07:14:52;9.13;;;8.32;;
823;SDS011;373;49.342;8.146;2023-06-22T07:17:20;9.40;;;8.45;;
823;SDS011;373;49.342;8.146;2023-06-22T07:19:47;9.90;;;9.10;;
823;SDS011;373;49.342;8.146;2023-06-22T07:22:14;9.90;;;9.13;;
823;SDS011;373;49.342;8.146;2023-06-22T07:24:42;9.65;;;8.90;;
823;SDS011;373;49.342;8.146;2023-06-22T07:27:09;8.95;;;8.20;;
823;SDS011;373;49.342;8.146;2023-06-22T07:29:37;9.68;;;8.88;;
823;SDS011;373;49.342;8.146;2023-06-22T07:32:06;9.68;;;8.75;;
823;SDS011;373;49.342;8.146;2023-06-22T07:34:33;9.23;;;8.45;;
823;SDS011;373;49.342;8.146;2023-06-22T07:37:01;9.15;;;8.30;;
823;SDS011;373;49.342;8.146;2023-06-22T07:39:28;9.20;;;8.50;;
823;SDS011;373;49.342;8.146;2023-06-22T07:41:57;8.75;;;7.90;;
823;SDS011;373;49.342;8.146;2023-06-22T07:44:24;7.55;;;6.88;;
823;SDS011;373;49.342;8.146;2023-06-22T07:46:51;8.65;;;7.85;;
823;SDS011;373;49.342;8.146;2023-06-22T07:49:18;8.18;;;7.53;;
823;SDS011;373;49.342;8.146;2023-06-22T07:51:45;8.48;;;7.68;;
823;SDS011;373;49.342;8.146;2023-06-22T07:54:12;8.38;;;7.68;;
823;SDS011;373;49.342;8.146;2023-06-22T07:56:41;8.45;;;7.75;;
823;SDS011;373;49.342;8.146;2023-06-22T07:59:09;9.18;;;8.27;;
823;SDS011;373;49.342;8.146;2023-06-22T08:01:39;8.55;;;7.85;;
823;SDS011;373;49.342;8.146;2023-06-22T08:04:06;9.80;;;8.90;;
823;SDS011;373;49.342;8.146;2023-06-22T08:06:33;9.40;;;8.40;;
823;SDS011;373;49.342;8.146;2023-06-22T08:09:01;9.48;;;8.57;;
823;SDS011;373;49.342;8.146;2023-06-22T08:11:28;9.73;;;8.70;;
823;SDS011;373;49.342;8.146;2023-06-22T08:13:55;8.35;;;7.65;;
823;SDS011;373;49.342;8.146;2023-06-22T08:16:25;9.85;;;8.95;;
823;SDS011;373;49.342;8.146;2023-06-22T08:18:52;9.75;;;8.90;;
823;SDS011;373;49.342;8.146;2023-06-22T08:21:20;8.30;;;7.60;;
823;SDS011;373;49.342;8.146;2023-06-22T08:23:47;9.30;;;8.43;;
823;SDS011;373;49.342;8.146;2023-06-22T08:26:14;9.45;;;8.32;;
823;SDS011;373;49.342;8.146;2023-06-22T08:28:41;9.20;;;8.32;;
823;SDS011;373;49.342;8.146;2023-06-22T08:31:08;10.45;;;9.45;;
823;SDS011;373;49.342;8.146;2023-06-22T08:33:40;9.98;;;9.05;;
823;SDS011;373;49.342;8.146;2023-06-22T08:36:09;8.68;;;8.07;;
823;SDS011;373;49.342;8.146;2023-06-22T08:38:38;7.18;;;6.57;;
823;SDS011;373;49.342;8.146;2023-06-22T08:41:05;7.55;;;6.60;;
823;SDS011;373;49.342;8.146;2023-06-22T08:43:33;6.53;;;5.78;;
823;SDS011;373;49.342;8.146;2023-06-22T08:46:00;6.80;;;6.22;;
823;SDS011;373;49.342;8.146;2023-06-22T08:48:27;6.20;;;5.68;;
823;SDS011;373;49.342;8.146;2023-06-22T08:50:56;6.20;;;5.53;;
823;SDS011;373;49.342;8.146;2023-06-22T08:53:23;6.63;;;5.85;;
823;SDS011;373;49.342;8.146;2023-06-22T08:55:50;6.55;;;5.40;;
823;SDS011;373;49.342;8.146;2023-06-22T08:58:17;6.65;;;5.35;;
823;SDS011;373;49.342;8.146;2023-06-22T09:00:45;5.45;;;4.90;;
823;SDS011;373;49.342;8.146;2023-06-22T09:03:12;6.25;;;5.28;;
823;SDS011;373;49.342;8.146;2023-06-22T09:05:40;5.30;;;4.80;;
823;SDS011;373;49.342;8.146;2023-06-22T09:08:08;5.85;;;5.35;;
823;SDS011;373;49.342;8.146;2023-06-22T09:10:37;6.55;;;5.97;;
823;SDS011;373;49.342;8.146;2023-06-22T09:13:04;6.13;;;5.63;;
823;SDS011;373;49.342;8.146;2023-06-22T09:15:31;5.88;;;5.38;;
823;SDS011;373;49.342;8.146;2023-06-22T09:17:59;5.18;;;4.72;;
823;SDS011;373;49.342;8.146;2023-06-22T09:20:26;5.80;;;5.30;;
823;SDS011;373;49.342;8.146;2023-06-22T09:22:54;4.65;;;4.25;;
823;SDS011;373;49.342;8.146;2023-06-22T09:25:22;5.85;;;5.22;;
823;SDS011;373;49.342;8.146;2023-06-22T09:27:50;5.53;;;4.97;;
823;SDS011;373;49.342;8.146;2023-06-22T09:30:17;4.82;;;4.30;;
823;SDS011;373;49.342;8.146;2023-06-22T09:32:44;7.20;;;4.85;;
823;SDS011;373;49.342;8.146;2023-06-22T09:35:11;5.43;;;5.00;;
823;SDS011;373;49.342;8.146;2023-06-22T09:37:39;6.40;;;5.22;;
823;SDS011;373;49.342;8.146;2023-06-22T09:40:07;6.03;;;5.43;;
823;SDS011;373;49.342;8.146;2023-06-22T09:42:38;5.72;;;5.18;;
823;SDS011;373;49.342;8.146;2023-06-22T09:45:05;6.38;;;5.78;;
823;SDS011;373;49.342;8.146;2023-06-22T09:47:33;6.75;;;5.45;;
823;SDS011;373;49.342;8.146;2023-06-22T09:50:00;6.15;;;5.65;;
823;SDS011;373;49.342;8.146;2023-06-22T09:52:27;6.32;;;5.60;;
823;SDS011;373;49.342;8.146;2023-06-22T09:54:54;6.95;;;5.30;;
823;SDS011;373;49.342;8.146;2023-06-22T09:57:21;6.30;;;5.50;;
823;SDS011;373;49.342;8.146;2023-06-22T09:59:50;6.63;;;6.03;;
823;SDS011;373;49.342;8.146;2023-06-22T10:02:17;8.00;;;5.88;;
823;SDS011;373;49.342;8.146;2023-06-22T10:04:44;6.65;;;6.00;;
823;SDS011;373;49.342;8.146;2023-06-22T10:07:14;6.18;;;5.57;;
823;SDS011;373;49.342;8.146;2023-06-22T10:09:41;8.77;;;5.95;;
823;SDS011;373;49.342;8.146;2023-06-22T10:12:11;6.78;;;6.13;;
823;SDS011;373;49.342;8.146;2023-06-22T10:14:38;8.93;;;5.97;;
823;SDS011;373;49.342;8.146;2023-06-22T10:17:06;6.95;;;5.55;;
823;SDS011;373;49.342;8.146;2023-06-22T10:19:34;6.40;;;5.78;;
823;SDS011;373;49.342;8.146;2023-06-22T10:22:03;6.72;;;6.03;;
823;SDS011;373;49.342;8.146;2023-06-22T10:24:30;7.00;;;5.63;;
823;SDS011;373;49.342;8.146;2023-06-22T10:26:57;6.18;;;5.15;;
823;SDS011;373;49.342;8.146;2023-06-22T10:29:24;6.38;;;5.88;;
823;SDS011;373;49.342;8.146;2023-06-22T10:31:52;6.93;;;6.32;;
823;SDS011;373;49.342;8.146;2023-06-22T10:34:20;6.97;;;6.38;;
823;SDS011;373;49.342;8.146;2023-06-22T10:36:47;8.63;;;5.75;;
823;SDS011;373;49.342;8.146;2023-06-22T10:39:14;7.82;;;6.25;;
823;SDS011;373;49.342;8.146;2023-06-22T10:41:42;6.10;;;5.55;;
823;SDS011;373;49.342;8.146;2023-06-22T10:44:09;6.88;;;5.25;;
823;SDS011;373;49.342;8.146;2023-06-22T10:46:36;8.63;;;6.05;;
823;SDS011;373;49.342;8.146;2023-06-22T10:49:03;6.30;;;5.70;;
823;SDS011;373;49.342;8.146;2023-06-22T10:51:31;6.43;;;5.82;;
823;SDS011;373;49.342;8.146;2023-06-22T10:53:59;6.63;;;5.93;;
823;SDS011;373;49.342;8.146;2023-06-22T10:56:26;6.57;;;5.28;;
823;SDS011;373;49.342;8.146;2023-06-22T10:58:53;6.47;;;5.88;;
823;SDS011;373;49.342;8.146;2023-06-22T11:01:20;5.75;;;5.25;;
823;SDS011;373;49.342;8.146;2023-06-22T11:03:47;5.80;;;5.32;;
823;SDS011;373;49.342;8.146;2023-06-22T11:06:14;5.60;;;5.07;;
823;SDS011;373;49.342;8.146;2023-06-22T11:08:45;6.20;;;5.60;;
823;SDS011;373;49.342;8.146;2023-06-22T11:11:12;8.05;;;5.60;;
823;SDS011;373;49.342;8.146;2023-06-22T11:13:39;6.45;;;5.80;;
823;SDS011;373;49.342;8.146;2023-06-22T11:16:06;6.93;;;6.32;;
823;SDS011;373;49.342;8.146;2023-06-22T11:18:33;6.43;;;5.82;;
823;SDS011;373;49.342;8.146;2023-06-22T11:21:00;7.18;;;6.38;;
823;SDS011;373;49.342;8.146;2023-06-22T11:23:27;6.13;;;5.53;;
823;SDS011;373;49.342;8.146;2023-06-22T11:25:56;6.70;;;5.78;;
823;SDS011;373;49.342;8.146;2023-06-22T11:28:23;6.25;;;5.60;;
823;SDS011;373;49.342;8.146;2023-06-22T11:30:52;6.07;;;5.13;;
823;SDS011;373;49.342;8.146;2023-06-22T11:33:19;5.68;;;5.18;;
823;SDS011;373;49.342;8.146;2023-06-22T11:35:47;9.10;;;6.53;;
823;SDS011;373;49.342;8.146;2023-06-22T11:38:14;6.38;;;5.75;;
823;SDS011;373;49.342;8.146;2023-06-22T11:40:42;6.30;;;5.57;;
823;SDS011;373;49.342;8.146;2023-06-22T11:43:11;6.53;;;5.47;;
823;SDS011;373;49.342;8.146;2023-06-22T11:45:40;7.40;;;5.72;;
823;SDS011;373;49.342;8.146;2023-06-22T11:48:10;8.63;;;6.43;;
823;SDS011;373;49.342;8.146;2023-06-22T11:50:40;6.57;;;5.45;;
823;SDS011;373;49.342;8.146;2023-06-22T11:53:10;6.45;;;5.50;;
823;SDS011;373;49.342;8.146;2023-06-22T11:55:43;6.50;;;5.43;;
823;SDS011;373;49.342;8.146;2023-06-22T11:58:12;7.40;;;5.72;;
823;SDS011;373;49.342;8.146;2023-06-22T12:00:40;6.90;;;6.20;;
823;SDS011;373;49.342;8.146;2023-06-22T12:03:07;7.30;;;6.60;;
823;SDS011;373;49.342;8.146;2023-06-22T12:05:37;6.32;;;5.68;;
823;SDS011;373;49.342;8.146;2023-06-22T12:08:06;7.15;;;5.70;;
823;SDS011;373;49.342;8.146;2023-06-22T12:10:35;6.65;;;6.05;;
823;SDS011;373;49.342;8.146;2023-06-22T12:13:02;8.82;;;5.95;;
823;SDS011;373;49.342;8.146;2023-06-22T12:15:33;6.97;;;6.35;;
823;SDS011;373;49.342;8.146;2023-06-22T12:18:01;6.97;;;6.28;;
823;SDS011;373;49.342;8.146;2023-06-22T12:20:28;9.02;;;6.68;;
823;SDS011;373;49.342;8.146;2023-06-22T12:22:55;8.13;;;5.80;;
823;SDS011;373;49.342;8.146;2023-06-22T12:25:23;9.40;;;6.15;;
823;SDS011;373;49.342;8.146;2023-06-22T12:27:54;7.03;;;5.35;;
823;SDS011;373;49.342;8.146;2023-06-22T12:30:22;9.07;;;6.38;;
823;SDS011;373;49.342;8.146;2023-06-22T12:32:51;6.57;;;5.75;;
823;SDS011;373;49.342;8.146;2023-06-22T12:35:19;6.95;;;6.25;;
823;SDS011;373;49.342;8.146;2023-06-22T12:37:46;7.32;;;6.15;;
823;SDS011;373;49.342;8.146;2023-06-22T12:40:26;8.25;;;6.20;;
823;SDS011;373;49.342;8.146;2023-06-22T12:42:58;7.82;;;5.50;;
823;SDS011;373;49.342;8.146;2023-06-22T12:45:30;9.18;;;6.28;;
823;SDS011;373;49.342;8.146;2023-06-22T12:48:01;7.13;;;6.38;;
823;SDS011;373;49.342;8.146;2023-06-22T12:50:44;6.50;;;5.78;;
823;SDS011;373;49.342;8.146;2023-06-22T12:53:15;9.85;;;5.85;;
823;SDS011;373;49.342;8.146;2023-06-22T12:55:44;10.65;;;6.20;;
823;SDS011;373;49.342;8.146;2023-06-22T12:58:19;6.90;;;6.20;;
823;SDS011;373;49.342;8.146;2023-06-22T13:00:46;8.05;;;6.35;;
823;SDS011;373;49.342;8.146;2023-06-22T13:03:15;7.07;;;6.13;;
823;SDS011;373;49.342;8.146;2023-06-22T13:05:42;8.32;;;6.15;;
823;SDS011;373;49.342;8.146;2023-06-22T13:08:09;7.03;;;6.35;;
823;SDS011;373;49.342;8.146;2023-06-22T13:10:36;7.78;;;5.95;;
823;SDS011;373;49.342;8.146;2023-06-22T13:13:03;7.82;;;5.45;;
823;SDS011;373;49.342;8.146;2023-06-22T13:15:30;7.78;;;5.93;;
823;SDS011;373;49.342;8.146;2023-06-22T13:17:57;7.15;;;5.75;;
823;SDS011;373;49.342;8.146;2023-06-22T13:20:26;6.75;;;6.05;;
823;SDS011;373;49.342;8.146;2023-06-22T13:22:55;7.68;;;6.00;;
823;SDS011;373;49.342;8.146;2023-06-22T13:25:22;8.05;;;6.05;;
823;SDS011;373;49.342;8.146;2023-06-22T13:27:51;7.03;;;5.70;;
823;SDS011;373;49.342;8.146;2023-06-22T13:30:18;8.27;;;6.03;;
823;SDS011;373;49.342;8.146;2023-06-22T13:32:46;8.50;;;5.57;;
823;SDS011;373;49.342;8.146;2023-06-22T13:35:13;9.30;;;6.15;;
823;SDS011;373;49.342;8.146;2023-06-22T13:37:44;7.22;;;6.07;;
823;SDS011;373;49.342;8.146;2023-06-22T13:40:11;8.73;;;5.82;;
823;SDS011;373;49.342;8.146;2023-06-22T13:42:40;8.23;;;5.72;;
823;SDS011;373;49.342;8.146;2023-06-22T13:45:07;10.07;;;6.32;;
823;SDS011;373;49.342;8.146;2023-06-22T13:47:35;8.55;;;6.85;;
823;SDS011;373;49.342;8.146;2023-06-22T13:50:03;8.77;;;6.78;;
823;SDS011;373;49.342;8.146;2023-06-22T13:52:31;9.52;;;6.63;;
823;SDS011;373;49.342;8.146;2023-06-22T13:54:59;7.63;;;6.03;;
823;SDS011;373;49.342;8.146;2023-06-22T13:57:26;8.70;;;6.20;;
823;SDS011;373;49.342;8.146;2023-06-22T13:59:53;7.78;;;5.85;;
823;SDS011;373;49.342;8.146;2023-06-22T14:02:20;7.60;;;6.13;;
823;SDS011;373;49.342;8.146;2023-06-22T14:04:48;13.57;;;6.72;;
823;SDS011;373;49.342;8.146;2023-06-22T14:07:15;9.18;;;5.97;;
823;SDS011;373;49.342;8.146;2023-06-22T14:09:44;9.75;;;6.55;;
823;SDS011;373;49.342;8.146;2023-06-22T14:12:13;9.13;;;6.70;;
823;SDS011;373;49.342;8.146;2023-06-22T14:14:41;11.45;;;6.88;;
823;SDS011;373;49.342;8.146;2023-06-22T14:17:08;10.40;;;6.45;;
823;SDS011;373;49.342;8.146;2023-06-22T14:19:35;9.55;;;6.60;;
823;SDS011;373;49.342;8.146;2023-06-22T14:22:03;8.25;;;6.47;;
823;SDS011;373;49.342;8.146;2023-06-22T14:24:30;11.95;;;7.25;;
823;SDS011;373;49.342;8.146;2023-06-22T14:27:00;8.70;;;7.32;;
823;SDS011;373;49.342;8.146;2023-06-22T14:29:30;10.38;;;8.05;;
823;SDS011;373;49.342;8.146;2023-06-22T14:31:57;11.65;;;8.93;;
823;SDS011;373;49.342;8.146;2023-06-22T14:34:24;11.90;;;8.18;;
823;SDS011;373;49.342;8.146;2023-06-22T14:36:51;10.50;;;8.32;;
823;SDS011;373;49.342;8.146;2023-06-22T14:39:18;12.63;;;8.60;;
823;SDS011;373;49.342;8.146;2023-06-22T14:41:46;10.95;;;8.50;;
823;SDS011;373;49.342;8.146;2023-06-22T14:44:13;9.95;;;8.40;;
823;SDS011;373;49.342;8.146;2023-06-22T14:46:41;9.35;;;8.30;;
823;SDS011;373;49.342;8.146;2023-06-22T14:49:08;11.75;;;8.30;;
823;SDS011;373;49.342;8.146;2023-06-22T14:51:35;12.63;;;7.97;;
823;SDS011;373;49.342;8.146;2023-06-22T14:54:02;9.98;;;8.02;;
823;SDS011;373;49.342;8.146;2023-06-22T14:56:30;9.68;;;8.50;;
823;SDS011;373;49.342;8.146;2023-06-22T14:58:57;11.63;;;7.90;;
823;SDS011;373;49.342;8.146;2023-06-22T15:01:24;10.88;;;8.52;;
823;SDS011;373;49.342;8.146;2023-06-22T15:03:52;10.65;;;7.50;;
823;SDS011;373;49.342;8.146;2023-06-22T15:06:19;12.35;;;8.43;;
823;SDS011;373;49.342;8.146;2023-06-22T15:08:47;9.57;;;8.15;;
823;SDS011;373;49.342;8.146;2023-06-22T15:11:14;9.95;;;8.25;;
823;SDS011;373;49.342;8.146;2023-06-22T15:13:41;10.65;;;7.93;;
823;SDS011;373;49.342;8.146;2023-06-22T15:16:09;11.35;;;7.55;;
823;SDS011;373;49.342;8.146;2023-06-22T15:18:36;8.80;;;7.75;;
823;SDS011;373;49.342;8.146;2023-06-22T15:21:05;11.75;;;7.93;;
823;SDS011;373;49.342;8.146;2023-06-22T15:23:34;10.65;;;8.73;;
823;SDS011;373;49.342;8.146;2023-06-22T15:26:02;12.40;;;7.90;;
823;SDS011;373;49.342;8.146;2023-06-22T15:28:30;9.63;;;7.60;;
823;SDS011;373;49.342;8.146;2023-06-22T15:30:57;11.25;;;7.15;;
823;SDS011;373;49.342;8.146;2023-06-22T15:33:24;10.88;;;7.72;;
823;SDS011;373;49.342;8.146;2023-06-22T15:35:52;10.00;;;7.47;;
823;SDS011;373;49.342;8.146;2023-06-22T15:38:23;12.38;;;8.07;;
823;SDS011;373;49.342;8.146;2023-06-22T15:40:50;10.20;;;7.55;;
823;SDS011;373;49.342;8.146;2023-06-22T15:43:17;8.80;;;7.90;;
823;SDS011;373;49.342;8.146;2023-06-22T15:45:45;9.52;;;8.40;;
823;SDS011;373;49.342;8.146;2023-06-22T15:48:15;10.27;;;8.25;;
823;SDS011;373;49.342;8.146;2023-06-22T15:50:42;9.90;;;8.25;;
823;SDS011;373;49.342;8.146;2023-06-22T15:53:09;9.35;;;7.43;;